createdAt,value
2023-03-29T00:00:50.198Z,101853.75
2023-03-29T00:03:17.377Z,101850.34
2023-03-29T00:05:44.803Z,101858.84
2023-03-29T00:08:14.411Z,101847.81
2023-03-29T00:10:42.105Z,101841.91
2023-03-29T00:13:08.649Z,101836.81
2023-03-29T00:15:35.495Z,101842.78
2023-03-29T00:18:02.112Z,101841.91
2023-03-29T00:20:28.951Z,101838.53
2023-03-29T00:22:55.745Z,101840.25
2023-03-29T00:25:22.529Z,101836.88
2023-03-29T00:27:49.194Z,101820.78
2023-03-29T00:30:16.470Z,101814.03
2023-03-29T00:32:43.176Z,101808.94
2023-03-29T00:35:11.013Z,101804.69
2023-03-29T00:37:38.076Z,101798.78
2023-03-29T00:40:10.819Z,101793.69
2023-03-29T00:42:37.600Z,101796.25
2023-03-29T00:45:10.051Z,101790.34
2023-03-29T00:47:46.486Z,101791.16
2023-03-29T00:50:29.704Z,101783.56
2023-03-29T00:53:09.411Z,101777.63
2023-03-29T00:55:43.057Z,101777.63
2023-03-29T00:58:13.978Z,101775.94
2023-03-29T01:00:45.643Z,101773.44
2023-03-29T01:03:25.027Z,101773.44
2023-03-29T01:05:57.739Z,101765.81
2023-03-29T01:08:29.604Z,101766.69
2023-03-29T01:11:15.763Z,101749.75
2023-03-29T01:13:50.534Z,101749.75
2023-03-29T01:16:20.174Z,101755.72
2023-03-29T01:18:49.592Z,101756.59
2023-03-29T01:21:21.316Z,101737.94
2023-03-29T01:24:09.362Z,101748.13
2023-03-29T01:26:52.711Z,101743.88
2023-03-29T01:29:31.430Z,101739.69
2023-03-29T01:32:03.600Z,101740.53
2023-03-29T01:34:51.758Z,101741.41
2023-03-29T01:37:27.230Z,101748.19
2023-03-29T01:39:53.957Z,101743.97
2023-03-29T01:42:30.961Z,101738.06
2023-03-29T01:45:04.885Z,101733.88
2023-03-29T01:47:39.409Z,101728.78
2023-03-29T01:50:08.838Z,101731.34
2023-03-29T01:52:57.907Z,101727.13
2023-03-29T01:55:31.733Z,101733.06
2023-03-29T01:58:00.715Z,101722.03
2023-03-29T02:00:29.519Z,101722.06
2023-03-29T02:03:03.314Z,101718.66
2023-03-29T02:05:31.644Z,101708.50
2023-03-29T02:08:00.550Z,101710.19
2023-03-29T02:10:27.962Z,101713.59
2023-03-29T02:12:54.733Z,101709.34
2023-03-29T02:15:23.315Z,101711.06
2023-03-29T02:17:51.008Z,101701.72
2023-03-29T02:20:29.185Z,101702.59
2023-03-29T02:23:05.170Z,101695.81
2023-03-29T02:25:32.611Z,101694.97
2023-03-29T02:27:59.936Z,101691.56
2023-03-29T02:30:33.656Z,101689.88
2023-03-29T02:33:15.659Z,101689.03
2023-03-29T02:35:56.742Z,101685.63
2023-03-29T02:38:25.623Z,101678.84
2023-03-29T02:40:52.931Z,101683.94
2023-03-29T02:43:20.104Z,101683.09
2023-03-29T02:45:47.708Z,101683.09
2023-03-29T02:48:18.260Z,101683.09
2023-03-29T02:50:47.696Z,101683.94
2023-03-29T02:53:23.021Z,101670.38
2023-03-29T02:55:49.729Z,101672.09
2023-03-29T02:58:16.245Z,101663.59
2023-03-29T03:00:48.195Z,101672.94
2023-03-29T03:03:18.073Z,101661.06
2023-03-29T03:05:44.747Z,101663.59
2023-03-29T03:08:11.456Z,101666.97
2023-03-29T03:10:38.310Z,101663.59
2023-03-29T03:13:04.715Z,101655.97
2023-03-29T03:15:35.478Z,101655.13
2023-03-29T03:18:06.158Z,101650.88
2023-03-29T03:20:33.318Z,101647.47
2023-03-29T03:23:01.099Z,101644.97
2023-03-29T03:25:28.735Z,101634.78
2023-03-29T03:27:55.390Z,101639.00
2023-03-29T03:30:22.018Z,101639.88
2023-03-29T03:32:49.827Z,101632.25
2023-03-29T03:35:16.591Z,101632.25
2023-03-29T03:37:43.104Z,101630.53
2023-03-29T03:40:11.817Z,101629.69
2023-03-29T03:42:39.834Z,101634.75
2023-03-29T03:45:08.380Z,101633.09
2023-03-29T03:47:37.534Z,101634.75
2023-03-29T03:50:06.115Z,101626.28
2023-03-29T03:52:32.627Z,101637.31
2023-03-29T03:54:59.385Z,101633.94
2023-03-29T03:57:26.005Z,101640.72
2023-03-29T03:59:52.924Z,101630.53
2023-03-29T04:02:20.592Z,101630.53
2023-03-29T04:04:47.635Z,101641.53
2023-03-29T04:07:14.427Z,101637.34
2023-03-29T04:09:40.942Z,101636.47
2023-03-29T04:12:07.622Z,101636.47
2023-03-29T04:14:34.293Z,101630.53
2023-03-29T04:17:01.401Z,101622.91
2023-03-29T04:19:28.137Z,101621.22
2023-03-29T04:21:54.636Z,101622.03
2023-03-29T04:24:21.107Z,101620.38
2023-03-29T04:26:48.431Z,101626.28
2023-03-29T04:29:14.967Z,101624.63
2023-03-29T04:31:41.877Z,101613.59
2023-03-29T04:34:08.437Z,101613.59
2023-03-29T04:36:35.025Z,101611.06
2023-03-29T04:39:01.788Z,101604.25
2023-03-29T04:41:28.941Z,101598.34
2023-03-29T04:43:56.240Z,101602.56
2023-03-29T04:46:26.664Z,101594.06
2023-03-29T04:48:54.032Z,101602.56
2023-03-29T04:51:22.226Z,101610.22
2023-03-29T04:53:50.285Z,101603.41
2023-03-29T04:56:17.657Z,101596.63
2023-03-29T04:58:44.624Z,101602.56
2023-03-29T05:01:11.406Z,101593.25
2023-03-29T05:03:37.903Z,101589.88
2023-03-29T05:06:07.083Z,101599.16
2023-03-29T05:08:35.044Z,101598.34
2023-03-29T05:11:01.942Z,101591.53
2023-03-29T05:13:28.693Z,101592.41
2023-03-29T05:15:57.236Z,101589.84
2023-03-29T05:18:23.753Z,101577.97
2023-03-29T05:20:53.045Z,101589.00
2023-03-29T05:23:20.687Z,101587.31
2023-03-29T05:25:51.046Z,101585.63
2023-03-29T05:28:18.323Z,101586.47
2023-03-29T05:30:45.456Z,101579.69
2023-03-29T05:33:12.034Z,101592.41
2023-03-29T05:35:38.719Z,101594.09
2023-03-29T05:38:05.481Z,101599.19
2023-03-29T05:40:32.638Z,101594.94
2023-03-29T05:43:01.426Z,101590.72
2023-03-29T05:45:29.582Z,101593.25
2023-03-29T05:47:57.492Z,101593.25
2023-03-29T05:50:24.769Z,101595.78
2023-03-29T05:52:51.578Z,101594.94
2023-03-29T05:55:18.492Z,101600.03
2023-03-29T05:57:44.971Z,101600.88
2023-03-29T06:00:23.906Z,101605.97
2023-03-29T06:02:52.668Z,101602.56
2023-03-29T06:05:20.160Z,101594.09
2023-03-29T06:07:48.786Z,101598.34
2023-03-29T06:10:16.074Z,101605.13
2023-03-29T06:12:42.492Z,101605.94
2023-03-29T06:15:10.245Z,101605.09
2023-03-29T06:17:37.064Z,101600.88
2023-03-29T06:20:09.095Z,101600.84
2023-03-29T06:22:35.867Z,101596.59
2023-03-29T06:25:02.574Z,101598.31
2023-03-29T06:27:29.010Z,101600.00
2023-03-29T06:29:55.418Z,101608.47
2023-03-29T06:32:22.191Z,101605.91
2023-03-29T06:34:48.783Z,101605.06
2023-03-29T06:37:15.312Z,101606.75
2023-03-29T06:39:41.792Z,101599.91
2023-03-29T06:42:19.986Z,101600.75
2023-03-29T06:44:47.931Z,101605.00
2023-03-29T06:47:14.892Z,101604.13
2023-03-29T06:49:42.286Z,101609.22
2023-03-29T06:52:09.029Z,101606.63
2023-03-29T06:54:35.631Z,101610.00
2023-03-29T06:57:03.871Z,101605.75
2023-03-29T06:59:30.335Z,101607.41
2023-03-29T07:01:56.990Z,101612.50
2023-03-29T07:04:24.768Z,101610.78
2023-03-29T07:07:01.320Z,101613.28
2023-03-29T07:09:30.047Z,101622.59
2023-03-29T07:11:58.162Z,101618.34
2023-03-29T07:14:28.663Z,101606.41
2023-03-29T07:16:56.203Z,101612.28
2023-03-29T07:19:24.285Z,101610.56
2023-03-29T07:21:53.027Z,101612.19
2023-03-29T07:24:20.194Z,101614.75
2023-03-29T07:27:03.245Z,101610.44
2023-03-29T07:29:31.424Z,101611.28
2023-03-29T07:31:57.938Z,101616.34
2023-03-29T07:34:24.467Z,101623.94
2023-03-29T07:36:51.532Z,101622.22
2023-03-29T07:39:18.325Z,101619.63
2023-03-29T07:41:44.809Z,101623.00
2023-03-29T07:44:11.352Z,101621.25
2023-03-29T07:46:37.997Z,101622.03
2023-03-29T07:49:04.566Z,101621.97
2023-03-29T07:51:31.258Z,101626.19
2023-03-29T07:53:57.715Z,101626.13
2023-03-29T07:56:24.759Z,101628.66
2023-03-29T07:58:51.775Z,101625.19
2023-03-29T08:01:19.920Z,101622.56
2023-03-29T08:03:46.751Z,101614.00
2023-03-29T08:06:13.392Z,101615.69
2023-03-29T08:08:40.268Z,101624.09
2023-03-29T08:11:09.790Z,101629.22
2023-03-29T08:13:36.486Z,101624.06
2023-03-29T08:16:03.395Z,101626.59
2023-03-29T08:18:31.124Z,101624.03
2023-03-29T08:20:58.732Z,101623.13
2023-03-29T08:23:25.264Z,101621.34
2023-03-29T08:25:52.191Z,101621.25
2023-03-29T08:28:18.648Z,101617.75
2023-03-29T08:30:45.636Z,101610.88
2023-03-29T08:33:12.246Z,101612.47
2023-03-29T08:35:39.019Z,101609.03
2023-03-29T08:38:05.565Z,101605.50
2023-03-29T08:40:33.653Z,101599.44
2023-03-29T08:43:18.690Z,101600.19
2023-03-29T08:46:12.196Z,101596.72
2023-03-29T08:48:44.423Z,101598.28
2023-03-29T08:51:21.551Z,101594.03
2023-03-29T08:53:56.805Z,101599.16
2023-03-29T08:56:27.110Z,101605.06
2023-03-29T08:58:56.718Z,101614.34
2023-03-29T09:01:25.271Z,101617.66
2023-03-29T09:04:03.813Z,101623.59
2023-03-29T09:06:30.958Z,101615.00
2023-03-29T09:08:57.938Z,101613.28
2023-03-29T09:11:24.296Z,101623.53
2023-03-29T09:14:22.576Z,101618.50
2023-03-29T09:17:04.084Z,101614.13
2023-03-29T09:20:18.221Z,101618.31
2023-03-29T09:22:59.962Z,101614.88
2023-03-29T09:25:50.860Z,101605.41
2023-03-29T09:28:28.281Z,101618.03
2023-03-29T09:31:28.462Z,101614.28
2023-03-29T09:33:59.045Z,101606.50
2023-03-29T09:36:44.407Z,101612.31
2023-03-29T09:39:14.609Z,101611.28
2023-03-29T09:41:48.106Z,101622.22
2023-03-29T09:44:30.257Z,101625.66
2023-03-29T09:47:07.789Z,101614.53
2023-03-29T09:49:42.160Z,101615.28
2023-03-29T09:52:13.149Z,101601.44
2023-03-29T09:54:40.204Z,101608.19
2023-03-29T09:57:09.366Z,101616.81
2023-03-29T09:59:35.973Z,101611.88
2023-03-29T10:02:13.623Z,101611.03
2023-03-29T10:04:42.471Z,101610.06
2023-03-29T10:07:16.053Z,101610.03
2023-03-29T10:09:45.541Z,101609.06
2023-03-29T10:12:13.634Z,101615.75
2023-03-29T10:14:51.523Z,101602.69
2023-03-29T10:17:22.334Z,101601.56
2023-03-29T10:19:57.062Z,101592.84
2023-03-29T10:22:32.935Z,101594.25
2023-03-29T10:24:59.440Z,101594.03
2023-03-29T10:27:28.178Z,101590.47
2023-03-29T10:29:56.516Z,101593.94
2023-03-29T10:32:23.162Z,101586.25
2023-03-29T10:34:51.953Z,101587.00
2023-03-29T10:37:21.111Z,101585.44
2023-03-29T10:39:48.853Z,101584.59
2023-03-29T10:42:18.145Z,101583.00
2023-03-29T10:44:54.177Z,101579.56
2023-03-29T10:47:21.584Z,101582.91
2023-03-29T10:49:56.453Z,101577.56
2023-03-29T10:52:23.626Z,101573.19
2023-03-29T10:54:52.530Z,101579.16
2023-03-29T10:58:02.110Z,101570.66
2023-03-29T11:00:45.268Z,101562.00
2023-03-29T11:03:30.509Z,101561.97
2023-03-29T11:06:27.426Z,101558.41
2023-03-29T11:08:59.304Z,101557.50
2023-03-29T11:11:44.233Z,101563.50
2023-03-29T11:14:29.356Z,101565.22
2023-03-29T11:16:58.368Z,101560.31
2023-03-29T11:19:43.007Z,101550.16
2023-03-29T11:22:27.936Z,101549.22
2023-03-29T11:25:23.453Z,101541.47
2023-03-29T11:28:18.141Z,101543.09
2023-03-29T11:31:28.790Z,101549.59
2023-03-29T11:34:21.230Z,101552.84
2023-03-29T11:36:59.376Z,101539.00
2023-03-29T11:39:38.647Z,101546.59
2023-03-29T11:42:16.591Z,101549.00
2023-03-29T11:44:44.789Z,101545.66
2023-03-29T11:47:18.723Z,101551.50
2023-03-29T11:49:56.237Z,101552.06
2023-03-29T11:52:40.946Z,101545.00
2023-03-29T11:55:23.529Z,101557.66
2023-03-29T11:57:57.965Z,101555.09
2023-03-29T12:00:32.062Z,101560.13
2023-03-29T12:03:21.339Z,101565.91
2023-03-29T12:06:04.885Z,101576.22
2023-03-29T12:09:02.247Z,101562.09
2023-03-29T12:11:36.269Z,101554.56
2023-03-29T12:14:11.638Z,101557.25
2023-03-29T12:16:44.692Z,101553.19
2023-03-29T12:19:31.670Z,101546.31
2023-03-29T12:22:00.523Z,101537.75
2023-03-29T12:24:31.897Z,101533.34
2023-03-29T12:27:20.814Z,101545.31
2023-03-29T12:30:35.080Z,101541.38
2023-03-29T12:33:20.000Z,101550.13
2023-03-29T12:36:10.884Z,101544.28
2023-03-29T12:38:37.940Z,101538.41
2023-03-29T12:41:19.022Z,101530.94
2023-03-29T12:43:46.555Z,101532.72
2023-03-29T12:46:18.567Z,101531.97
2023-03-29T12:48:49.106Z,101541.34
2023-03-29T12:51:18.732Z,101536.16
2023-03-29T12:53:49.072Z,101530.22
2023-03-29T12:56:19.351Z,101524.25
2023-03-29T12:59:06.917Z,101508.03
2023-03-29T13:01:38.632Z,101492.44
2023-03-29T13:04:22.428Z,101476.91
2023-03-29T13:06:48.853Z,101480.22
2023-03-29T13:09:23.261Z,101476.69
2023-03-29T13:11:55.493Z,101479.16
2023-03-29T13:14:26.321Z,101477.28
2023-03-29T13:16:53.646Z,101471.06
2023-03-29T13:19:24.975Z,101464.09
2023-03-29T13:22:17.743Z,101458.88
2023-03-29T13:24:47.227Z,101457.84
2023-03-29T13:27:25.248Z,101453.28
2023-03-29T13:30:16.756Z,101441.06
2023-03-29T13:32:48.561Z,101442.81
2023-03-29T13:35:50.480Z,101445.38
2023-03-29T13:38:27.668Z,101442.75
2023-03-29T13:40:54.061Z,101454.56
2023-03-29T13:43:30.819Z,101457.84
2023-03-29T13:45:57.229Z,101438.81
2023-03-29T13:48:29.365Z,101441.31
2023-03-29T13:50:57.683Z,101450.03
2023-03-29T13:54:03.435Z,101449.13
2023-03-29T13:56:39.405Z,101436.94
2023-03-29T13:59:11.964Z,101425.50
2023-03-29T14:02:06.548Z,101419.25
2023-03-29T14:04:41.944Z,101407.91
2023-03-29T14:07:10.603Z,101401.63
2023-03-29T14:09:44.009Z,101394.56
2023-03-29T14:12:15.151Z,101402.22
2023-03-29T14:14:55.995Z,101394.53
2023-03-29T14:17:25.707Z,101389.25
2023-03-29T14:19:58.131Z,101390.66
2023-03-29T14:22:29.205Z,101395.53
2023-03-29T14:24:56.821Z,101390.16
2023-03-29T14:27:23.414Z,101385.75
2023-03-29T14:29:51.349Z,101385.53
2023-03-29T14:32:27.479Z,101374.31
2023-03-29T14:34:54.122Z,101379.22
2023-03-29T14:37:25.272Z,101382.47
2023-03-29T14:39:52.285Z,101368.72
2023-03-29T14:42:24.205Z,101363.44
2023-03-29T14:44:51.117Z,101361.59
2023-03-29T14:47:29.378Z,101357.97
2023-03-29T14:50:00.632Z,101356.00
2023-03-29T14:52:29.230Z,101350.78
2023-03-29T14:54:58.317Z,101345.56
2023-03-29T14:57:28.794Z,101336.75
2023-03-29T15:00:00.327Z,101334.03
2023-03-29T15:02:32.709Z,101332.13
2023-03-29T15:05:07.564Z,101330.44
2023-03-29T15:07:37.037Z,101329.75
2023-03-29T15:10:06.279Z,101322.84
2023-03-29T15:12:33.843Z,101308.19
2023-03-29T15:15:01.460Z,101304.47
2023-03-29T15:17:51.108Z,101307.78
2023-03-29T15:20:28.437Z,101304.38
2023-03-29T15:23:13.215Z,101307.06
2023-03-29T15:25:58.406Z,101300.28
2023-03-29T15:28:26.601Z,101289.81
2023-03-29T15:31:07.333Z,101294.06
2023-03-29T15:33:37.677Z,101280.28
2023-03-29T15:36:07.860Z,101286.28
2023-03-29T15:38:43.847Z,101287.34
2023-03-29T15:41:12.461Z,101284.94
2023-03-29T15:43:39.162Z,101281.78
2023-03-29T15:46:05.926Z,101274.31
2023-03-29T15:48:33.765Z,101276.16
2023-03-29T15:51:13.557Z,101273.78
2023-03-29T15:53:40.525Z,101266.06
2023-03-29T15:56:11.566Z,101265.88
2023-03-29T15:58:38.332Z,101261.66
2023-03-29T16:01:19.305Z,101249.75
2023-03-29T16:03:47.851Z,101247.19
2023-03-29T16:06:17.321Z,101238.56
2023-03-29T16:08:43.802Z,101238.56
2023-03-29T16:11:10.305Z,101241.94
2023-03-29T16:13:36.740Z,101227.38
2023-03-29T16:16:03.638Z,101210.22
2023-03-29T16:18:30.391Z,101210.28
2023-03-29T16:20:57.004Z,101208.63
2023-03-29T16:23:23.461Z,101198.38
2023-03-29T16:25:50.292Z,101200.22
2023-03-29T16:28:16.969Z,101193.50
2023-03-29T16:30:43.757Z,101188.44
2023-03-29T16:33:10.915Z,101190.94
2023-03-29T16:35:39.998Z,101176.50
2023-03-29T16:38:07.765Z,101173.09
2023-03-29T16:40:34.718Z,101161.13
2023-03-29T16:43:01.716Z,101165.47
2023-03-29T16:45:28.605Z,101154.44
2023-03-29T16:47:56.037Z,101156.28
2023-03-29T16:50:23.134Z,101161.59
2023-03-29T16:52:51.439Z,101159.25
2023-03-29T16:55:19.016Z,101157.69
2023-03-29T16:57:46.902Z,101158.66
2023-03-29T17:00:15.954Z,101166.50
2023-03-29T17:02:46.186Z,101146.84
2023-03-29T17:05:13.041Z,101145.25
2023-03-29T17:07:39.522Z,101157.38
2023-03-29T17:10:10.679Z,101158.25
2023-03-29T17:12:37.215Z,101151.44
2023-03-29T17:15:05.366Z,101158.44
2023-03-29T17:17:32.054Z,101149.13
2023-03-29T17:19:58.522Z,101144.97
2023-03-29T17:22:25.824Z,101142.41
2023-03-29T17:24:52.494Z,101135.66
2023-03-29T17:27:18.944Z,101136.50
2023-03-29T17:29:45.465Z,101129.69
2023-03-29T17:32:11.929Z,101140.88
2023-03-29T17:34:38.947Z,101129.75
2023-03-29T17:37:05.405Z,101121.19
2023-03-29T17:39:32.089Z,101113.56
2023-03-29T17:41:58.578Z,101113.66
2023-03-29T17:44:25.064Z,101112.06
2023-03-29T17:46:51.642Z,101100.91
2023-03-29T17:49:18.108Z,101101.03
2023-03-29T17:51:46.204Z,101104.53
2023-03-29T17:54:12.694Z,101103.81
2023-03-29T17:56:39.257Z,101096.34
2023-03-29T17:59:05.891Z,101092.09
2023-03-29T18:01:32.791Z,101097.38
2023-03-29T18:03:59.375Z,101094.03
2023-03-29T18:06:25.994Z,101097.56
2023-03-29T18:08:53.306Z,101102.09
2023-03-29T18:11:25.543Z,101098.88
2023-03-29T18:13:53.208Z,101090.44
2023-03-29T18:16:21.332Z,101093.22
2023-03-29T18:18:48.534Z,101086.56
2023-03-29T18:21:16.954Z,101084.16
2023-03-29T18:23:48.082Z,101083.53
2023-03-29T18:26:16.560Z,101083.56
2023-03-29T18:28:48.282Z,101082.84
2023-03-29T18:31:15.624Z,101077.81
2023-03-29T18:33:42.272Z,101068.63
2023-03-29T18:36:12.614Z,101072.22
2023-03-29T18:38:40.808Z,101068.91
2023-03-29T18:41:08.613Z,101071.56
2023-03-29T18:43:35.968Z,101072.50
2023-03-29T18:46:03.433Z,101073.53
2023-03-29T18:48:30.183Z,101070.25
2023-03-29T18:50:57.864Z,101066.94
2023-03-29T18:53:24.465Z,101077.38
2023-03-29T18:55:51.090Z,101076.66
2023-03-29T18:58:17.848Z,101062.16
2023-03-29T19:00:44.698Z,101057.91
2023-03-29T19:03:11.375Z,101068.28
2023-03-29T19:05:39.686Z,101068.34
2023-03-29T19:08:08.926Z,101065.00
2023-03-29T19:10:39.267Z,101063.44
2023-03-29T19:13:06.039Z,101062.59
2023-03-29T19:15:34.669Z,101056.69
2023-03-29T19:18:01.478Z,101056.69
2023-03-29T19:20:29.342Z,101055.09
2023-03-29T19:22:55.858Z,101045.03
2023-03-29T19:25:22.471Z,101045.97
2023-03-29T19:27:50.261Z,101044.28
2023-03-29T19:30:18.155Z,101046.97
2023-03-29T19:32:44.619Z,101041.88
2023-03-29T19:35:12.808Z,101041.06
2023-03-29T19:37:39.604Z,101026.56
2023-03-29T19:40:08.250Z,101020.59
2023-03-29T19:42:37.658Z,101015.53
2023-03-29T19:45:06.366Z,101002.69
2023-03-29T19:47:32.899Z,100995.88
2023-03-29T19:49:59.921Z,101000.13
2023-03-29T19:52:28.207Z,100992.44
2023-03-29T19:54:55.947Z,100982.22
2023-03-29T19:57:23.877Z,100977.94
2023-03-29T19:59:50.888Z,100984.00
2023-03-29T20:02:17.507Z,100979.69
2023-03-29T20:04:44.184Z,100969.50
2023-03-29T20:07:10.825Z,100977.13
2023-03-29T20:09:37.741Z,100966.09
2023-03-29T20:12:04.918Z,100956.72
2023-03-29T20:14:31.626Z,100953.31
2023-03-29T20:16:58.475Z,100957.59
2023-03-29T20:19:25.359Z,100952.53
2023-03-29T20:21:57.378Z,100948.34
2023-03-29T20:24:24.825Z,100943.31
2023-03-29T20:26:51.793Z,100944.19
2023-03-29T20:29:18.985Z,100942.44
2023-03-29T20:31:46.325Z,100933.06
2023-03-29T20:34:12.907Z,100932.16
2023-03-29T20:36:40.477Z,100918.44
2023-03-29T20:39:08.248Z,100908.19
2023-03-29T20:41:38.405Z,100902.16
2023-03-29T20:44:05.637Z,100895.28
2023-03-29T20:46:35.744Z,100886.66
2023-03-29T20:49:08.898Z,100878.00
2023-03-29T20:51:36.326Z,100883.03
2023-03-29T20:54:06.129Z,100868.31
2023-03-29T20:56:38.987Z,100873.28
2023-03-29T20:59:10.605Z,100862.16
2023-03-29T21:01:40.553Z,100860.38
2023-03-29T21:04:10.959Z,100860.25
2023-03-29T21:06:39.414Z,100856.81
2023-03-29T21:09:06.157Z,100848.22
2023-03-29T21:11:32.684Z,100845.69
2023-03-29T21:13:59.151Z,100838.06
2023-03-29T21:16:25.860Z,100846.63
2023-03-29T21:18:53.227Z,100845.88
2023-03-29T21:21:19.682Z,100841.69
2023-03-29T21:23:46.130Z,100845.97
2023-03-29T21:26:13.212Z,100836.53
2023-03-29T21:28:41.062Z,100841.69
2023-03-29T21:31:08.243Z,100830.59
2023-03-29T21:33:35.881Z,100820.31
2023-03-29T21:36:02.575Z,100816.03
2023-03-29T21:38:29.136Z,100813.53
2023-03-29T21:40:55.869Z,100805.88
2023-03-29T21:43:22.460Z,100808.53
2023-03-29T21:45:49.865Z,100815.47
2023-03-29T21:48:17.391Z,100810.34
2023-03-29T21:50:44.375Z,100808.78
2023-03-29T21:53:11.025Z,100796.88
2023-03-29T21:55:37.560Z,100789.22
2023-03-29T21:58:04.614Z,100795.28
2023-03-29T22:00:31.800Z,100791.84
2023-03-29T22:02:58.493Z,100793.63
2023-03-29T22:05:26.198Z,100788.59
2023-03-29T22:07:52.846Z,100781.75
2023-03-29T22:10:23.161Z,100777.56
2023-03-29T22:12:51.239Z,100773.31
2023-03-29T22:15:20.564Z,100768.25
2023-03-29T22:17:47.170Z,100770.81
2023-03-29T22:20:14.274Z,100774.25
2023-03-29T22:22:45.897Z,100775.19
2023-03-29T22:25:13.065Z,100780.34
2023-03-29T22:27:39.546Z,100780.44
2023-03-29T22:30:06.779Z,100776.25
2023-03-29T22:32:33.409Z,100777.09
2023-03-29T22:35:00.113Z,100777.94
2023-03-29T22:37:26.692Z,100778.72
2023-03-29T22:39:53.247Z,100773.63
2023-03-29T22:42:20.174Z,100776.25
2023-03-29T22:44:46.761Z,100769.34
2023-03-29T22:47:13.203Z,100770.19
2023-03-29T22:49:39.776Z,100771.03
2023-03-29T22:52:06.625Z,100765.06
2023-03-29T22:54:33.292Z,100764.13
2023-03-29T22:56:59.877Z,100758.06
2023-03-29T22:59:27.282Z,100752.06
2023-03-29T23:01:54.008Z,100747.75
2023-03-29T23:04:20.590Z,100744.28
2023-03-29T23:06:47.033Z,100745.13
2023-03-29T23:09:15.989Z,100739.09
2023-03-29T23:11:42.952Z,100741.72
2023-03-29T23:14:09.565Z,100739.09
2023-03-29T23:16:36.893Z,100733.81
2023-03-29T23:19:03.419Z,100730.28
2023-03-29T23:21:29.968Z,100726.72
2023-03-29T23:23:56.414Z,100724.06
2023-03-29T23:26:23.172Z,100731.59
2023-03-29T23:28:51.431Z,100727.25
2023-03-29T23:31:18.456Z,100726.19
2023-03-29T23:33:45.145Z,100719.22
2023-03-29T23:36:14.453Z,100725.22
2023-03-29T23:38:42.377Z,100717.41
2023-03-29T23:41:10.819Z,100713.91
2023-03-29T23:43:40.587Z,100709.44
2023-03-29T23:46:16.241Z,100708.63
2023-03-29T23:48:47.265Z,100699.91
2023-03-29T23:51:13.893Z,100705.00
2023-03-29T23:53:40.452Z,100694.59
2023-03-29T23:56:08.052Z,100703.94
2023-03-29T23:58:37.341Z,100705.44
